sensor_id;sensor_type;location;lat;lon;timestamp;temperature;humidity
29687;DHT22;16599;47.078;15.536;2022-07-29T00:01:53;18.20;99.90
29687;DHT22;16599;47.078;15.536;2022-07-29T00:04:20;18.20;99.90
29687;DHT22;16599;47.078;15.536;2022-07-29T00:06:47;18.20;99.90
29687;DHT22;16599;47.078;15.536;2022-07-29T00:09:14;18.30;99.90
29687;DHT22;16599;47.078;15.536;2022-07-29T00:11:41;18.30;99.90
29687;DHT22;16599;47.078;15.536;2022-07-29T00:14:08;18.40;99.90
29687;DHT22;16599;47.078;15.536;2022-07-29T00:16:34;18.40;99.90
29687;DHT22;16599;47.078;15.536;2022-07-29T00:19:01;18.30;99.90
29687;DHT22;16599;47.078;15.536;2022-07-29T00:21:28;18.20;99.90
29687;DHT22;16599;47.078;15.536;2022-07-29T00:23:55;18.30;99.90
29687;DHT22;16599;47.078;15.536;2022-07-29T00:26:22;18.40;99.90
29687;DHT22;16599;47.078;15.536;2022-07-29T00:28:49;18.40;99.90
29687;DHT22;16599;47.078;15.536;2022-07-29T00:31:16;18.40;99.90
29687;DHT22;16599;47.078;15.536;2022-07-29T00:33:42;18.30;99.90
29687;DHT22;16599;47.078;15.536;2022-07-29T00:36:09;18.30;99.90
29687;DHT22;16599;47.078;15.536;2022-07-29T00:38:36;18.40;99.90
29687;DHT22;16599;47.078;15.536;2022-07-29T00:41:02;18.50;99.90
29687;DHT22;16599;47.078;15.536;2022-07-29T00:43:29;18.50;99.90
29687;DHT22;16599;47.078;15.536;2022-07-29T00:45:56;18.50;99.90
29687;DHT22;16599;47.078;15.536;2022-07-29T00:48:23;18.40;99.90
29687;DHT22;16599;47.078;15.536;2022-07-29T00:50:49;18.30;99.90
29687;DHT22;16599;47.078;15.536;2022-07-29T00:53:17;18.30;99.90
29687;DHT22;16599;47.078;15.536;2022-07-29T00:55:43;18.30;99.90
29687;DHT22;16599;47.078;15.536;2022-07-29T00:58:11;18.30;99.90
29687;DHT22;16599;47.078;15.536;2022-07-29T01:00:38;18.40;99.90
29687;DHT22;16599;47.078;15.536;2022-07-29T01:03:07;18.40;99.90
29687;DHT22;16599;47.078;15.536;2022-07-29T01:05:34;18.40;99.90
29687;DHT22;16599;47.078;15.536;2022-07-29T01:08:17;18.10;99.90
29687;DHT22;16599;47.078;15.536;2022-07-29T01:10:44;18.10;99.90
29687;DHT22;16599;47.078;15.536;2022-07-29T01:13:12;18.10;99.90
29687;DHT22;16599;47.078;15.536;2022-07-29T01:15:42;17.90;99.90
29687;DHT22;16599;47.078;15.536;2022-07-29T01:23:40;18.10;99.90
29687;DHT22;16599;47.078;15.536;2022-07-29T01:31:33;18.20;99.90
29687;DHT22;16599;47.078;15.536;2022-07-29T01:34:05;18.20;99.90
29687;DHT22;16599;47.078;15.536;2022-07-29T01:36:33;18.10;99.90
29687;DHT22;16599;47.078;15.536;2022-07-29T01:41:43;17.90;99.90
29687;DHT22;16599;47.078;15.536;2022-07-29T01:44:12;18.00;99.90
29687;DHT22;16599;47.078;15.536;2022-07-29T01:46:44;18.10;99.90
29687;DHT22;16599;47.078;15.536;2022-07-29T01:49:20;18.00;99.90
29687;DHT22;16599;47.078;15.536;2022-07-29T01:51:51;18.00;99.90
29687;DHT22;16599;47.078;15.536;2022-07-29T01:56:49;18.00;99.90
29687;DHT22;16599;47.078;15.536;2022-07-29T01:59:17;17.80;99.90
29687;DHT22;16599;47.078;15.536;2022-07-29T02:01:46;17.70;99.90
29687;DHT22;16599;47.078;15.536;2022-07-29T02:04:16;17.70;99.90
29687;DHT22;16599;47.078;15.536;2022-07-29T02:06:57;17.60;99.90
29687;DHT22;16599;47.078;15.536;2022-07-29T02:09:25;17.50;99.90
29687;DHT22;16599;47.078;15.536;2022-07-29T02:11:53;17.50;99.90
29687;DHT22;16599;47.078;15.536;2022-07-29T02:14:21;17.30;99.90
29687;DHT22;16599;47.078;15.536;2022-07-29T02:16:50;17.30;99.90
29687;DHT22;16599;47.078;15.536;2022-07-29T02:19:18;17.30;99.90
29687;DHT22;16599;47.078;15.536;2022-07-29T02:21:46;17.30;99.90
29687;DHT22;16599;47.078;15.536;2022-07-29T02:24:13;17.20;99.90
29687;DHT22;16599;47.078;15.536;2022-07-29T02:26:41;17.10;99.90
29687;DHT22;16599;47.078;15.536;2022-07-29T02:29:08;17.20;99.90
29687;DHT22;16599;47.078;15.536;2022-07-29T02:31:35;17.10;99.90
29687;DHT22;16599;47.078;15.536;2022-07-29T02:34:03;17.10;99.90
29687;DHT22;16599;47.078;15.536;2022-07-29T02:36:31;16.90;99.90
29687;DHT22;16599;47.078;15.536;2022-07-29T02:38:59;16.90;99.90
29687;DHT22;16599;47.078;15.536;2022-07-29T02:41:35;16.70;99.90
29687;DHT22;16599;47.078;15.536;2022-07-29T02:44:05;16.80;99.90
29687;DHT22;16599;47.078;15.536;2022-07-29T02:46:34;16.80;99.90
29687;DHT22;16599;47.078;15.536;2022-07-29T02:49:04;16.70;99.90
29687;DHT22;16599;47.078;15.536;2022-07-29T02:51:36;16.70;99.90
29687;DHT22;16599;47.078;15.536;2022-07-29T02:54:10;16.50;99.90
29687;DHT22;16599;47.078;15.536;2022-07-29T02:56:37;16.40;99.90
29687;DHT22;16599;47.078;15.536;2022-07-29T02:59:07;16.50;99.90
29687;DHT22;16599;47.078;15.536;2022-07-29T03:01:35;16.50;99.90
29687;DHT22;16599;47.078;15.536;2022-07-29T03:04:05;16.60;99.90
29687;DHT22;16599;47.078;15.536;2022-07-29T03:06:32;16.70;99.90
29687;DHT22;16599;47.078;15.536;2022-07-29T03:09:07;16.70;99.90
29687;DHT22;16599;47.078;15.536;2022-07-29T03:11:39;16.60;99.90
29687;DHT22;16599;47.078;15.536;2022-07-29T03:14:16;16.40;99.90
29687;DHT22;16599;47.078;15.536;2022-07-29T03:16:44;16.20;99.90
29687;DHT22;16599;47.078;15.536;2022-07-29T03:19:11;16.20;99.90
29687;DHT22;16599;47.078;15.536;2022-07-29T03:21:38;16.30;99.90
29687;DHT22;16599;47.078;15.536;2022-07-29T03:24:05;16.30;99.90
29687;DHT22;16599;47.078;15.536;2022-07-29T03:26:36;16.10;99.90
29687;DHT22;16599;47.078;15.536;2022-07-29T03:29:03;16.00;99.90
29687;DHT22;16599;47.078;15.536;2022-07-29T03:31:29;16.00;99.90
29687;DHT22;16599;47.078;15.536;2022-07-29T03:33:56;15.90;99.90
29687;DHT22;16599;47.078;15.536;2022-07-29T03:36:23;16.00;99.90
29687;DHT22;16599;47.078;15.536;2022-07-29T03:38:51;16.20;99.90
29687;DHT22;16599;47.078;15.536;2022-07-29T03:41:18;16.30;99.90
29687;DHT22;16599;47.078;15.536;2022-07-29T03:43:48;16.40;99.90
29687;DHT22;16599;47.078;15.536;2022-07-29T03:46:16;16.30;99.90
29687;DHT22;16599;47.078;15.536;2022-07-29T03:48:45;16.20;99.90
29687;DHT22;16599;47.078;15.536;2022-07-29T03:51:13;16.00;99.90
29687;DHT22;16599;47.078;15.536;2022-07-29T03:53:40;16.10;99.90
29687;DHT22;16599;47.078;15.536;2022-07-29T03:56:07;15.90;99.90
29687;DHT22;16599;47.078;15.536;2022-07-29T03:58:35;15.80;99.90
29687;DHT22;16599;47.078;15.536;2022-07-29T04:01:02;15.90;99.90
29687;DHT22;16599;47.078;15.536;2022-07-29T04:03:29;15.90;99.90
29687;DHT22;16599;47.078;15.536;2022-07-29T04:06:00;16.10;99.90
29687;DHT22;16599;47.078;15.536;2022-07-29T04:08:27;16.20;99.90
29687;DHT22;16599;47.078;15.536;2022-07-29T04:10:54;16.40;99.90
29687;DHT22;16599;47.078;15.536;2022-07-29T04:13:21;16.50;99.90
29687;DHT22;16599;47.078;15.536;2022-07-29T04:15:48;16.60;99.90
29687;DHT22;16599;47.078;15.536;2022-07-29T04:18:14;16.60;99.90
29687;DHT22;16599;47.078;15.536;2022-07-29T04:20:41;16.50;99.90
29687;DHT22;16599;47.078;15.536;2022-07-29T04:23:08;16.20;99.90
29687;DHT22;16599;47.078;15.536;2022-07-29T04:25:38;16.10;99.90
29687;DHT22;16599;47.078;15.536;2022-07-29T04:28:05;16.10;99.90
29687;DHT22;16599;47.078;15.536;2022-07-29T04:30:32;16.00;99.90
29687;DHT22;16599;47.078;15.536;2022-07-29T04:33:04;16.00;99.90
29687;DHT22;16599;47.078;15.536;2022-07-29T04:35:34;16.30;99.90
29687;DHT22;16599;47.078;15.536;2022-07-29T04:38:04;16.50;99.90
29687;DHT22;16599;47.078;15.536;2022-07-29T04:40:31;16.30;99.90
29687;DHT22;16599;47.078;15.536;2022-07-29T04:43:00;16.40;99.90
29687;DHT22;16599;47.078;15.536;2022-07-29T04:45:31;16.50;99.90
29687;DHT22;16599;47.078;15.536;2022-07-29T04:47:57;16.60;99.90
29687;DHT22;16599;47.078;15.536;2022-07-29T04:50:24;16.80;99.90
29687;DHT22;16599;47.078;15.536;2022-07-29T04:52:51;16.90;99.90
29687;DHT22;16599;47.078;15.536;2022-07-29T04:55:18;16.90;99.90
29687;DHT22;16599;47.078;15.536;2022-07-29T04:57:44;16.80;99.90
29687;DHT22;16599;47.078;15.536;2022-07-29T05:00:11;16.80;99.90
29687;DHT22;16599;47.078;15.536;2022-07-29T05:02:38;17.00;99.90
29687;DHT22;16599;47.078;15.536;2022-07-29T05:05:05;17.10;99.90
29687;DHT22;16599;47.078;15.536;2022-07-29T05:07:32;17.30;99.90
29687;DHT22;16599;47.078;15.536;2022-07-29T05:09:59;17.40;99.90
29687;DHT22;16599;47.078;15.536;2022-07-29T05:12:26;17.50;99.90
29687;DHT22;16599;47.078;15.536;2022-07-29T05:14:52;17.50;99.90
29687;DHT22;16599;47.078;15.536;2022-07-29T05:17:19;17.60;99.90
29687;DHT22;16599;47.078;15.536;2022-07-29T05:19:46;17.70;99.90
29687;DHT22;16599;47.078;15.536;2022-07-29T05:22:13;17.80;99.90
29687;DHT22;16599;47.078;15.536;2022-07-29T05:24:39;17.80;99.90
29687;DHT22;16599;47.078;15.536;2022-07-29T05:27:07;17.90;99.90
29687;DHT22;16599;47.078;15.536;2022-07-29T05:29:33;17.90;99.90
29687;DHT22;16599;47.078;15.536;2022-07-29T05:32:11;17.90;99.90
29687;DHT22;16599;47.078;15.536;2022-07-29T05:34:38;18.10;99.90
29687;DHT22;16599;47.078;15.536;2022-07-29T05:37:17;18.20;99.90
29687;DHT22;16599;47.078;15.536;2022-07-29T05:39:44;18.30;99.90
29687;DHT22;16599;47.078;15.536;2022-07-29T05:42:16;18.50;99.90
29687;DHT22;16599;47.078;15.536;2022-07-29T05:44:42;18.60;99.90
29687;DHT22;16599;47.078;15.536;2022-07-29T05:47:09;18.70;99.90
29687;DHT22;16599;47.078;15.536;2022-07-29T05:49:36;18.80;99.90
29687;DHT22;16599;47.078;15.536;2022-07-29T05:52:03;18.90;99.90
29687;DHT22;16599;47.078;15.536;2022-07-29T05:54:30;19.00;99.90
29687;DHT22;16599;47.078;15.536;2022-07-29T05:56:57;19.10;99.90
29687;DHT22;16599;47.078;15.536;2022-07-29T05:59:23;19.30;99.90
29687;DHT22;16599;47.078;15.536;2022-07-29T06:01:55;19.40;99.90
29687;DHT22;16599;47.078;15.536;2022-07-29T06:04:23;19.40;99.90
29687;DHT22;16599;47.078;15.536;2022-07-29T06:06:50;19.70;99.90
29687;DHT22;16599;47.078;15.536;2022-07-29T06:09:17;19.80;99.90
29687;DHT22;16599;47.078;15.536;2022-07-29T06:11:44;20.00;99.90
29687;DHT22;16599;47.078;15.536;2022-07-29T06:14:11;20.00;99.90
29687;DHT22;16599;47.078;15.536;2022-07-29T06:16:37;20.10;99.90
29687;DHT22;16599;47.078;15.536;2022-07-29T06:19:05;20.20;99.90
29687;DHT22;16599;47.078;15.536;2022-07-29T06:21:32;20.30;99.90
29687;DHT22;16599;47.078;15.536;2022-07-29T06:24:04;20.30;99.90
29687;DHT22;16599;47.078;15.536;2022-07-29T06:26:31;20.50;99.90
29687;DHT22;16599;47.078;15.536;2022-07-29T06:29:05;20.60;99.90
29687;DHT22;16599;47.078;15.536;2022-07-29T06:31:32;20.60;99.90
29687;DHT22;16599;47.078;15.536;2022-07-29T06:33:58;20.70;99.90
29687;DHT22;16599;47.078;15.536;2022-07-29T06:36:26;20.80;99.90
29687;DHT22;16599;47.078;15.536;2022-07-29T06:38:53;21.20;99.90
29687;DHT22;16599;47.078;15.536;2022-07-29T06:41:21;21.40;99.90
29687;DHT22;16599;47.078;15.536;2022-07-29T06:43:49;21.50;99.90
29687;DHT22;16599;47.078;15.536;2022-07-29T06:46:22;21.50;99.90
29687;DHT22;16599;47.078;15.536;2022-07-29T06:48:49;21.50;99.90
29687;DHT22;16599;47.078;15.536;2022-07-29T06:51:17;21.50;99.90
29687;DHT22;16599;47.078;15.536;2022-07-29T06:53:49;21.70;99.90
29687;DHT22;16599;47.078;15.536;2022-07-29T06:56:32;22.00;99.90
29687;DHT22;16599;47.078;15.536;2022-07-29T06:59:09;22.10;99.90
29687;DHT22;16599;47.078;15.536;2022-07-29T07:01:36;22.20;99.90
29687;DHT22;16599;47.078;15.536;2022-07-29T07:04:03;22.60;98.70
29687;DHT22;16599;47.078;15.536;2022-07-29T07:06:30;22.90;98.70
29687;DHT22;16599;47.078;15.536;2022-07-29T07:08:57;22.80;96.80
29687;DHT22;16599;47.078;15.536;2022-07-29T07:11:24;22.80;96.60
29687;DHT22;16599;47.078;15.536;2022-07-29T07:13:50;22.90;97.20
29687;DHT22;16599;47.078;15.536;2022-07-29T07:16:17;23.00;95.40
29687;DHT22;16599;47.078;15.536;2022-07-29T07:18:44;23.10;96.00
29687;DHT22;16599;47.078;15.536;2022-07-29T07:21:12;23.30;94.70
29687;DHT22;16599;47.078;15.536;2022-07-29T07:23:45;23.50;93.90
29687;DHT22;16599;47.078;15.536;2022-07-29T07:26:11;23.40;93.60
29687;DHT22;16599;47.078;15.536;2022-07-29T07:28:38;23.30;94.00
29687;DHT22;16599;47.078;15.536;2022-07-29T07:31:05;23.30;92.60
29687;DHT22;16599;47.078;15.536;2022-07-29T07:33:32;23.40;92.90
29687;DHT22;16599;47.078;15.536;2022-07-29T07:36:00;23.60;93.00
29687;DHT22;16599;47.078;15.536;2022-07-29T07:38:26;23.80;92.40
29687;DHT22;16599;47.078;15.536;2022-07-29T07:40:53;23.80;92.60
29687;DHT22;16599;47.078;15.536;2022-07-29T07:43:20;23.90;94.00
29687;DHT22;16599;47.078;15.536;2022-07-29T07:45:48;24.00;89.10
29687;DHT22;16599;47.078;15.536;2022-07-29T07:48:21;24.30;89.20
29687;DHT22;16599;47.078;15.536;2022-07-29T07:50:47;24.30;89.80
29687;DHT22;16599;47.078;15.536;2022-07-29T07:53:15;24.20;85.20
29687;DHT22;16599;47.078;15.536;2022-07-29T07:55:42;24.50;87.90
29687;DHT22;16599;47.078;15.536;2022-07-29T07:58:35;24.60;88.50
29687;DHT22;16599;47.078;15.536;2022-07-29T08:01:02;24.70;88.50
29687;DHT22;16599;47.078;15.536;2022-07-29T08:03:29;24.60;85.50
29687;DHT22;16599;47.078;15.536;2022-07-29T08:05:55;24.60;85.80
29687;DHT22;16599;47.078;15.536;2022-07-29T08:08:22;24.50;80.20
29687;DHT22;16599;47.078;15.536;2022-07-29T08:10:49;24.80;82.40
29687;DHT22;16599;47.078;15.536;2022-07-29T08:13:23;24.90;82.80
29687;DHT22;16599;47.078;15.536;2022-07-29T08:15:50;24.90;82.70
29687;DHT22;16599;47.078;15.536;2022-07-29T08:18:38;24.90;82.40
29687;DHT22;16599;47.078;15.536;2022-07-29T08:21:05;24.90;83.00
29687;DHT22;16599;47.078;15.536;2022-07-29T08:23:32;25.20;79.40
29687;DHT22;16599;47.078;15.536;2022-07-29T08:26:12;25.40;85.40
29687;DHT22;16599;47.078;15.536;2022-07-29T08:28:40;25.50;81.00
29687;DHT22;16599;47.078;15.536;2022-07-29T08:31:08;25.60;77.70
29687;DHT22;16599;47.078;15.536;2022-07-29T08:33:34;25.80;77.50
29687;DHT22;16599;47.078;15.536;2022-07-29T08:36:01;25.60;74.90
29687;DHT22;16599;47.078;15.536;2022-07-29T08:38:28;25.60;76.90
29687;DHT22;16599;47.078;15.536;2022-07-29T08:40:55;25.70;76.20
29687;DHT22;16599;47.078;15.536;2022-07-29T08:43:22;25.90;71.40
29687;DHT22;16599;47.078;15.536;2022-07-29T08:45:49;25.90;75.90
29687;DHT22;16599;47.078;15.536;2022-07-29T08:48:21;26.10;72.80
29687;DHT22;16599;47.078;15.536;2022-07-29T08:50:50;26.00;71.40
29687;DHT22;16599;47.078;15.536;2022-07-29T08:53:18;26.10;71.90
29687;DHT22;16599;47.078;15.536;2022-07-29T08:55:46;26.30;69.60
29687;DHT22;16599;47.078;15.536;2022-07-29T08:58:13;26.40;68.60
29687;DHT22;16599;47.078;15.536;2022-07-29T09:00:42;26.30;70.30
29687;DHT22;16599;47.078;15.536;2022-07-29T09:03:12;26.30;68.30
29687;DHT22;16599;47.078;15.536;2022-07-29T09:05:41;26.30;69.40
29687;DHT22;16599;47.078;15.536;2022-07-29T09:08:14;26.60;70.60
29687;DHT22;16599;47.078;15.536;2022-07-29T09:10:41;26.90;69.60
29687;DHT22;16599;47.078;15.536;2022-07-29T09:13:08;26.60;66.40
29687;DHT22;16599;47.078;15.536;2022-07-29T09:15:34;26.30;68.70
29687;DHT22;16599;47.078;15.536;2022-07-29T09:18:01;26.20;70.60
29687;DHT22;16599;47.078;15.536;2022-07-29T09:20:28;26.00;69.80
29687;DHT22;16599;47.078;15.536;2022-07-29T09:23:14;25.80;71.00
29687;DHT22;16599;47.078;15.536;2022-07-29T09:25:49;25.80;69.90
29687;DHT22;16599;47.078;15.536;2022-07-29T09:28:16;25.70;73.90
29687;DHT22;16599;47.078;15.536;2022-07-29T09:30:50;25.60;77.50
29687;DHT22;16599;47.078;15.536;2022-07-29T09:33:17;25.50;75.40
29687;DHT22;16599;47.078;15.536;2022-07-29T09:35:44;25.40;73.20
29687;DHT22;16599;47.078;15.536;2022-07-29T09:38:22;25.30;73.50
29687;DHT22;16599;47.078;15.536;2022-07-29T09:41:00;25.30;73.40
29687;DHT22;16599;47.078;15.536;2022-07-29T09:43:32;25.30;74.60
29687;DHT22;16599;47.078;15.536;2022-07-29T09:46:17;25.20;73.90
29687;DHT22;16599;47.078;15.536;2022-07-29T09:48:44;25.20;74.70
29687;DHT22;16599;47.078;15.536;2022-07-29T09:51:20;25.40;76.80
29687;DHT22;16599;47.078;15.536;2022-07-29T09:54:22;25.40;74.50
29687;DHT22;16599;47.078;15.536;2022-07-29T09:56:49;25.40;75.80
29687;DHT22;16599;47.078;15.536;2022-07-29T09:59:16;25.50;79.20
29687;DHT22;16599;47.078;15.536;2022-07-29T10:01:43;25.60;77.70
29687;DHT22;16599;47.078;15.536;2022-07-29T10:04:10;25.50;74.80
29687;DHT22;16599;47.078;15.536;2022-07-29T10:09:35;25.70;75.70
29687;DHT22;16599;47.078;15.536;2022-07-29T10:12:02;25.70;75.40
29687;DHT22;16599;47.078;15.536;2022-07-29T10:14:30;25.80;77.40
29687;DHT22;16599;47.078;15.536;2022-07-29T10:16:57;25.90;73.80
29687;DHT22;16599;47.078;15.536;2022-07-29T10:19:25;25.90;72.90
29687;DHT22;16599;47.078;15.536;2022-07-29T10:21:52;25.90;77.00
29687;DHT22;16599;47.078;15.536;2022-07-29T10:24:24;25.80;75.40
29687;DHT22;16599;47.078;15.536;2022-07-29T10:26:53;25.90;78.40
29687;DHT22;16599;47.078;15.536;2022-07-29T10:29:20;25.90;77.00
29687;DHT22;16599;47.078;15.536;2022-07-29T10:37:25;25.40;77.50
29687;DHT22;16599;47.078;15.536;2022-07-29T10:42:28;25.40;78.70
29687;DHT22;16599;47.078;15.536;2022-07-29T10:45:00;25.30;78.00
29687;DHT22;16599;47.078;15.536;2022-07-29T10:47:29;25.20;75.30
29687;DHT22;16599;47.078;15.536;2022-07-29T10:49:57;25.20;74.50
29687;DHT22;16599;47.078;15.536;2022-07-29T10:58:32;25.10;79.70
29687;DHT22;16599;47.078;15.536;2022-07-29T11:00:52;25.20;79.90
29687;DHT22;16599;47.078;15.536;2022-07-29T11:06:15;25.20;78.00
29687;DHT22;16599;47.078;15.536;2022-07-29T11:08:43;25.30;78.30
29687;DHT22;16599;47.078;15.536;2022-07-29T11:13:48;25.70;74.10
29687;DHT22;16599;47.078;15.536;2022-07-29T11:16:18;25.80;73.40
29687;DHT22;16599;47.078;15.536;2022-07-29T11:21:34;26.00;74.50
29687;DHT22;16599;47.078;15.536;2022-07-29T11:24:26;26.20;73.90
29687;DHT22;16599;47.078;15.536;2022-07-29T11:29:35;26.40;72.30
29687;DHT22;16599;47.078;15.536;2022-07-29T11:32:12;26.40;72.00
29687;DHT22;16599;47.078;15.536;2022-07-29T11:34:48;26.30;71.60
29687;DHT22;16599;47.078;15.536;2022-07-29T11:37:16;26.40;73.70
29687;DHT22;16599;47.078;15.536;2022-07-29T11:47:53;26.80;69.90
29687;DHT22;16599;47.078;15.536;2022-07-29T11:52:53;26.30;69.50
29687;DHT22;16599;47.078;15.536;2022-07-29T11:55:22;26.30;72.10
29687;DHT22;16599;47.078;15.536;2022-07-29T11:57:59;26.60;70.60
29687;DHT22;16599;47.078;15.536;2022-07-29T12:00:46;26.60;69.00
29687;DHT22;16599;47.078;15.536;2022-07-29T12:03:22;26.60;67.60
29687;DHT22;16599;47.078;15.536;2022-07-29T12:06:12;26.60;68.60
29687;DHT22;16599;47.078;15.536;2022-07-29T12:08:41;26.60;67.60
29687;DHT22;16599;47.078;15.536;2022-07-29T12:11:16;26.60;67.10
29687;DHT22;16599;47.078;15.536;2022-07-29T12:13:46;26.60;68.80
29687;DHT22;16599;47.078;15.536;2022-07-29T12:16:15;26.40;67.50
29687;DHT22;16599;47.078;15.536;2022-07-29T12:19:01;26.30;68.30
29687;DHT22;16599;47.078;15.536;2022-07-29T12:21:42;26.30;68.10
29687;DHT22;16599;47.078;15.536;2022-07-29T12:24:21;26.40;70.40
29687;DHT22;16599;47.078;15.536;2022-07-29T12:26:56;26.40;72.40
29687;DHT22;16599;47.078;15.536;2022-07-29T12:29:23;26.40;72.10
29687;DHT22;16599;47.078;15.536;2022-07-29T12:32:02;26.20;72.00
29687;DHT22;16599;47.078;15.536;2022-07-29T12:34:29;26.20;72.00
29687;DHT22;16599;47.078;15.536;2022-07-29T12:36:56;26.10;74.30
29687;DHT22;16599;47.078;15.536;2022-07-29T12:39:23;26.20;73.70
29687;DHT22;16599;47.078;15.536;2022-07-29T12:41:53;26.20;74.20
29687;DHT22;16599;47.078;15.536;2022-07-29T12:47:12;26.20;78.80
29687;DHT22;16599;47.078;15.536;2022-07-29T12:49:39;26.10;72.60
29687;DHT22;16599;47.078;15.536;2022-07-29T12:55:03;26.10;75.80
29687;DHT22;16599;47.078;15.536;2022-07-29T12:57:30;26.10;73.00
29687;DHT22;16599;47.078;15.536;2022-07-29T13:00:05;26.20;76.90
29687;DHT22;16599;47.078;15.536;2022-07-29T13:02:34;26.30;71.50
29687;DHT22;16599;47.078;15.536;2022-07-29T13:05:03;26.40;70.20
29687;DHT22;16599;47.078;15.536;2022-07-29T13:07:31;26.40;66.00
29687;DHT22;16599;47.078;15.536;2022-07-29T13:10:21;26.40;67.40
29687;DHT22;16599;47.078;15.536;2022-07-29T13:13:03;26.60;66.50
29687;DHT22;16599;47.078;15.536;2022-07-29T13:15:30;26.60;67.40
29687;DHT22;16599;47.078;15.536;2022-07-29T13:17:57;26.60;69.50
29687;DHT22;16599;47.078;15.536;2022-07-29T13:20:25;26.60;69.30
29687;DHT22;16599;47.078;15.536;2022-07-29T13:22:53;26.60;70.20
29687;DHT22;16599;47.078;15.536;2022-07-29T13:25:30;26.60;67.60
29687;DHT22;16599;47.078;15.536;2022-07-29T13:27:58;26.50;68.90
29687;DHT22;16599;47.078;15.536;2022-07-29T13:30:25;26.30;65.80
29687;DHT22;16599;47.078;15.536;2022-07-29T13:32:52;26.30;69.90
29687;DHT22;16599;47.078;15.536;2022-07-29T13:35:19;26.30;76.30
29687;DHT22;16599;47.078;15.536;2022-07-29T13:37:46;26.20;78.60
29687;DHT22;16599;47.078;15.536;2022-07-29T13:40:17;26.20;75.30
29687;DHT22;16599;47.078;15.536;2022-07-29T13:42:44;26.30;76.90
29687;DHT22;16599;47.078;15.536;2022-07-29T13:45:12;26.40;79.60
29687;DHT22;16599;47.078;15.536;2022-07-29T13:47:39;26.60;76.80
29687;DHT22;16599;47.078;15.536;2022-07-29T13:50:13;26.70;72.80
29687;DHT22;16599;47.078;15.536;2022-07-29T13:52:40;26.70;71.20
29687;DHT22;16599;47.078;15.536;2022-07-29T13:55:07;26.80;69.30
29687;DHT22;16599;47.078;15.536;2022-07-29T13:57:34;26.80;70.40
29687;DHT22;16599;47.078;15.536;2022-07-29T14:00:01;26.80;69.30
29687;DHT22;16599;47.078;15.536;2022-07-29T14:02:29;26.70;70.10
29687;DHT22;16599;47.078;15.536;2022-07-29T14:04:55;26.50;68.20
29687;DHT22;16599;47.078;15.536;2022-07-29T14:07:22;26.20;67.10
29687;DHT22;16599;47.078;15.536;2022-07-29T14:09:49;26.10;66.70
29687;DHT22;16599;47.078;15.536;2022-07-29T14:12:17;26.20;66.60
29687;DHT22;16599;47.078;15.536;2022-07-29T14:14:43;26.40;66.10
29687;DHT22;16599;47.078;15.536;2022-07-29T14:17:13;26.70;70.20
29687;DHT22;16599;47.078;15.536;2022-07-29T14:19:39;27.10;73.00
29687;DHT22;16599;47.078;15.536;2022-07-29T14:22:07;27.60;69.40
29687;DHT22;16599;47.078;15.536;2022-07-29T14:24:36;27.90;68.00
29687;DHT22;16599;47.078;15.536;2022-07-29T14:27:03;27.90;66.80
29687;DHT22;16599;47.078;15.536;2022-07-29T14:29:30;28.00;64.20
29687;DHT22;16599;47.078;15.536;2022-07-29T14:32:04;28.00;64.90
29687;DHT22;16599;47.078;15.536;2022-07-29T14:34:32;28.00;63.10
29687;DHT22;16599;47.078;15.536;2022-07-29T14:36:59;28.10;62.30
29687;DHT22;16599;47.078;15.536;2022-07-29T14:39:26;28.10;64.40
29687;DHT22;16599;47.078;15.536;2022-07-29T14:41:57;27.80;64.80
29687;DHT22;16599;47.078;15.536;2022-07-29T14:44:25;27.50;65.20
29687;DHT22;16599;47.078;15.536;2022-07-29T14:47:00;27.40;64.80
29687;DHT22;16599;47.078;15.536;2022-07-29T14:49:33;27.40;65.60
29687;DHT22;16599;47.078;15.536;2022-07-29T14:52:00;27.40;69.10
29687;DHT22;16599;47.078;15.536;2022-07-29T14:54:27;27.40;67.90
29687;DHT22;16599;47.078;15.536;2022-07-29T14:56:53;27.30;69.60
29687;DHT22;16599;47.078;15.536;2022-07-29T14:59:23;27.20;65.70
29687;DHT22;16599;47.078;15.536;2022-07-29T15:01:50;26.90;64.80
29687;DHT22;16599;47.078;15.536;2022-07-29T15:04:17;26.70;67.60
29687;DHT22;16599;47.078;15.536;2022-07-29T15:06:44;26.60;67.70
29687;DHT22;16599;47.078;15.536;2022-07-29T15:09:11;26.50;69.30
29687;DHT22;16599;47.078;15.536;2022-07-29T15:11:38;26.30;68.10
29687;DHT22;16599;47.078;15.536;2022-07-29T15:14:05;26.40;66.90
29687;DHT22;16599;47.078;15.536;2022-07-29T15:16:32;26.30;67.80
29687;DHT22;16599;47.078;15.536;2022-07-29T15:19:00;26.40;68.10
29687;DHT22;16599;47.078;15.536;2022-07-29T15:21:27;26.40;67.40
29687;DHT22;16599;47.078;15.536;2022-07-29T15:23:54;26.50;66.70
29687;DHT22;16599;47.078;15.536;2022-07-29T15:26:20;26.40;67.80
29687;DHT22;16599;47.078;15.536;2022-07-29T15:28:47;26.50;66.80
29687;DHT22;16599;47.078;15.536;2022-07-29T15:31:14;26.70;66.60
29687;DHT22;16599;47.078;15.536;2022-07-29T15:33:41;26.70;66.00
29687;DHT22;16599;47.078;15.536;2022-07-29T15:36:08;26.60;66.30
29687;DHT22;16599;47.078;15.536;2022-07-29T15:38:35;26.50;67.90
29687;DHT22;16599;47.078;15.536;2022-07-29T15:41:07;26.50;67.50
29687;DHT22;16599;47.078;15.536;2022-07-29T15:43:34;26.40;67.50
29687;DHT22;16599;47.078;15.536;2022-07-29T15:46:04;26.60;71.60
29687;DHT22;16599;47.078;15.536;2022-07-29T15:48:49;26.60;69.10
29687;DHT22;16599;47.078;15.536;2022-07-29T15:51:16;26.40;67.70
29687;DHT22;16599;47.078;15.536;2022-07-29T15:53:43;26.50;69.80
29687;DHT22;16599;47.078;15.536;2022-07-29T15:56:19;26.50;67.40
29687;DHT22;16599;47.078;15.536;2022-07-29T15:58:45;26.70;67.20
29687;DHT22;16599;47.078;15.536;2022-07-29T16:01:12;26.70;68.70
29687;DHT22;16599;47.078;15.536;2022-07-29T16:03:39;26.80;68.00
29687;DHT22;16599;47.078;15.536;2022-07-29T16:06:11;26.80;67.50
29687;DHT22;16599;47.078;15.536;2022-07-29T16:08:38;27.00;66.50
29687;DHT22;16599;47.078;15.536;2022-07-29T16:11:05;27.00;65.10
29687;DHT22;16599;47.078;15.536;2022-07-29T16:13:31;27.00;66.70
29687;DHT22;16599;47.078;15.536;2022-07-29T16:15:58;26.90;65.50
29687;DHT22;16599;47.078;15.536;2022-07-29T16:18:28;26.90;66.00
29687;DHT22;16599;47.078;15.536;2022-07-29T16:20:56;26.80;65.70
29687;DHT22;16599;47.078;15.536;2022-07-29T16:23:23;26.90;66.00
29687;DHT22;16599;47.078;15.536;2022-07-29T16:25:50;27.10;65.10
29687;DHT22;16599;47.078;15.536;2022-07-29T16:28:27;27.20;66.70